sensor_id;sensor_type;location;lat;lon;timestamp;P1;durP1;ratioP1;P2;durP2;ratioP2
12625;SDS011;6378;42.684;23.372;2023-03-23T00:01:00;67.60;;;41.30;;
12625;SDS011;6378;42.684;23.372;2023-03-23T00:03:27;60.10;;;38.00;;
12625;SDS011;6378;42.684;23.372;2023-03-23T00:05:54;60.50;;;38.77;;
12625;SDS011;6378;42.684;23.372;2023-03-23T00:08:24;63.77;;;39.10;;
12625;SDS011;6378;42.684;23.372;2023-03-23T00:10:51;64.17;;;39.70;;
12625;SDS011;6378;42.684;23.372;2023-03-23T00:13:21;63.37;;;38.53;;
12625;SDS011;6378;42.684;23.372;2023-03-23T00:15:50;61.00;;;39.33;;
12625;SDS011;6378;42.684;23.372;2023-03-23T00:18:20;64.50;;;40.77;;
12625;SDS011;6378;42.684;23.372;2023-03-23T00:20:47;63.67;;;39.43;;
12625;SDS011;6378;42.684;23.372;2023-03-23T00:23:20;70.37;;;42.87;;
12625;SDS011;6378;42.684;23.372;2023-03-23T00:25:48;65.27;;;38.90;;
12625;SDS011;6378;42.684;23.372;2023-03-23T00:28:16;64.20;;;39.33;;
12625;SDS011;6378;42.684;23.372;2023-03-23T00:30:42;62.97;;;40.37;;
12625;SDS011;6378;42.684;23.372;2023-03-23T00:33:09;64.87;;;41.27;;
12625;SDS011;6378;42.684;23.372;2023-03-23T00:35:37;62.00;;;39.80;;
12625;SDS011;6378;42.684;23.372;2023-03-23T00:38:03;63.77;;;42.03;;
12625;SDS011;6378;42.684;23.372;2023-03-23T00:40:29;214.67;;;53.77;;
12625;SDS011;6378;42.684;23.372;2023-03-23T00:42:55;76.30;;;44.00;;
12625;SDS011;6378;42.684;23.372;2023-03-23T00:45:21;370.13;;;61.17;;
12625;SDS011;6378;42.684;23.372;2023-03-23T00:47:46;428.03;;;75.03;;
12625;SDS011;6378;42.684;23.372;2023-03-23T00:50:16;180.03;;;70.47;;
12625;SDS011;6378;42.684;23.372;2023-03-23T00:52:43;232.30;;;65.93;;
12625;SDS011;6378;42.684;23.372;2023-03-23T00:55:08;112.33;;;53.90;;
12625;SDS011;6378;42.684;23.372;2023-03-23T00:57:34;102.60;;;55.10;;
12625;SDS011;6378;42.684;23.372;2023-03-23T01:00:00;94.43;;;49.17;;
12625;SDS011;6378;42.684;23.372;2023-03-23T01:02:25;78.17;;;44.53;;
12625;SDS011;6378;42.684;23.372;2023-03-23T01:04:51;84.17;;;44.30;;
12625;SDS011;6378;42.684;23.372;2023-03-23T01:07:19;81.47;;;45.07;;
12625;SDS011;6378;42.684;23.372;2023-03-23T01:09:46;85.13;;;45.40;;
12625;SDS011;6378;42.684;23.372;2023-03-23T01:12:13;103.57;;;48.13;;
12625;SDS011;6378;42.684;23.372;2023-03-23T01:14:39;107.03;;;46.90;;
12625;SDS011;6378;42.684;23.372;2023-03-23T01:17:05;111.70;;;48.93;;
12625;SDS011;6378;42.684;23.372;2023-03-23T01:19:31;299.87;;;62.60;;
12625;SDS011;6378;42.684;23.372;2023-03-23T01:21:56;154.47;;;51.03;;
12625;SDS011;6378;42.684;23.372;2023-03-23T01:24:22;99.03;;;45.83;;
12625;SDS011;6378;42.684;23.372;2023-03-23T01:26:48;110.40;;;47.67;;
12625;SDS011;6378;42.684;23.372;2023-03-23T01:29:14;91.27;;;45.83;;
12625;SDS011;6378;42.684;23.372;2023-03-23T01:31:40;179.13;;;51.00;;
12625;SDS011;6378;42.684;23.372;2023-03-23T01:34:07;90.77;;;46.57;;
12625;SDS011;6378;42.684;23.372;2023-03-23T01:36:33;89.07;;;46.30;;
12625;SDS011;6378;42.684;23.372;2023-03-23T01:38:59;84.63;;;45.20;;
12625;SDS011;6378;42.684;23.372;2023-03-23T01:41:27;85.30;;;44.53;;
12625;SDS011;6378;42.684;23.372;2023-03-23T01:43:53;77.90;;;41.80;;
12625;SDS011;6378;42.684;23.372;2023-03-23T01:46:26;71.27;;;40.33;;
12625;SDS011;6378;42.684;23.372;2023-03-23T01:48:53;79.33;;;43.23;;
12625;SDS011;6378;42.684;23.372;2023-03-23T01:51:22;75.67;;;41.37;;
12625;SDS011;6378;42.684;23.372;2023-03-23T01:53:59;73.77;;;40.13;;
12625;SDS011;6378;42.684;23.372;2023-03-23T01:56:50;71.03;;;39.60;;
12625;SDS011;6378;42.684;23.372;2023-03-23T01:59:17;70.07;;;39.70;;
12625;SDS011;6378;42.684;23.372;2023-03-23T02:01:44;72.07;;;40.27;;
12625;SDS011;6378;42.684;23.372;2023-03-23T02:04:14;74.43;;;39.90;;
12625;SDS011;6378;42.684;23.372;2023-03-23T02:06:42;75.40;;;41.20;;
12625;SDS011;6378;42.684;23.372;2023-03-23T02:09:09;70.17;;;40.77;;
12625;SDS011;6378;42.684;23.372;2023-03-23T02:11:38;75.00;;;40.87;;
12625;SDS011;6378;42.684;23.372;2023-03-23T02:14:04;78.33;;;42.40;;
12625;SDS011;6378;42.684;23.372;2023-03-23T02:16:36;87.10;;;45.90;;
12625;SDS011;6378;42.684;23.372;2023-03-23T02:33:17;73.13;;;42.33;;
12625;SDS011;6378;42.684;23.372;2023-03-23T02:36:09;78.57;;;44.40;;
12625;SDS011;6378;42.684;23.372;2023-03-23T02:38:44;73.30;;;43.33;;
12625;SDS011;6378;42.684;23.372;2023-03-23T02:41:25;75.17;;;43.47;;
12625;SDS011;6378;42.684;23.372;2023-03-23T02:43:56;74.80;;;43.03;;
12625;SDS011;6378;42.684;23.372;2023-03-23T02:46:22;79.07;;;41.57;;
12625;SDS011;6378;42.684;23.372;2023-03-23T02:48:50;79.07;;;43.60;;
12625;SDS011;6378;42.684;23.372;2023-03-23T02:51:19;84.57;;;47.33;;
12625;SDS011;6378;42.684;23.372;2023-03-23T02:53:46;94.27;;;50.07;;
12625;SDS011;6378;42.684;23.372;2023-03-23T02:56:15;90.97;;;51.00;;
12625;SDS011;6378;42.684;23.372;2023-03-23T02:58:41;92.87;;;52.47;;
12625;SDS011;6378;42.684;23.372;2023-03-23T03:01:13;87.83;;;51.60;;
12625;SDS011;6378;42.684;23.372;2023-03-23T03:04:11;84.33;;;48.97;;
12625;SDS011;6378;42.684;23.372;2023-03-23T03:17:49;68.37;;;38.50;;
12625;SDS011;6378;42.684;23.372;2023-03-23T03:20:20;62.97;;;36.43;;
12625;SDS011;6378;42.684;23.372;2023-03-23T03:22:50;67.13;;;39.50;;
12625;SDS011;6378;42.684;23.372;2023-03-23T03:25:17;75.87;;;42.07;;
12625;SDS011;6378;42.684;23.372;2023-03-23T03:27:45;71.23;;;41.63;;
12625;SDS011;6378;42.684;23.372;2023-03-23T03:30:17;66.30;;;38.50;;
12625;SDS011;6378;42.684;23.372;2023-03-23T03:32:49;67.80;;;39.87;;
12625;SDS011;6378;42.684;23.372;2023-03-23T03:35:18;70.80;;;38.47;;
12625;SDS011;6378;42.684;23.372;2023-03-23T03:37:46;67.87;;;38.70;;
12625;SDS011;6378;42.684;23.372;2023-03-23T03:40:14;71.37;;;40.63;;
12625;SDS011;6378;42.684;23.372;2023-03-23T03:42:42;65.20;;;38.40;;
12625;SDS011;6378;42.684;23.372;2023-03-23T03:45:11;63.83;;;38.13;;
12625;SDS011;6378;42.684;23.372;2023-03-23T03:47:41;55.23;;;33.57;;
12625;SDS011;6378;42.684;23.372;2023-03-23T03:50:06;58.93;;;35.27;;
12625;SDS011;6378;42.684;23.372;2023-03-23T03:52:33;56.77;;;32.07;;
12625;SDS011;6378;42.684;23.372;2023-03-23T03:54:59;45.87;;;27.63;;
12625;SDS011;6378;42.684;23.372;2023-03-23T03:57:24;42.20;;;25.80;;
12625;SDS011;6378;42.684;23.372;2023-03-23T03:59:50;45.87;;;27.20;;
12625;SDS011;6378;42.684;23.372;2023-03-23T04:02:16;44.47;;;26.73;;
12625;SDS011;6378;42.684;23.372;2023-03-23T04:04:45;52.87;;;31.43;;
12625;SDS011;6378;42.684;23.372;2023-03-23T04:07:12;46.73;;;28.83;;
12625;SDS011;6378;42.684;23.372;2023-03-23T04:09:38;48.87;;;30.30;;
12625;SDS011;6378;42.684;23.372;2023-03-23T04:12:05;51.73;;;32.03;;
12625;SDS011;6378;42.684;23.372;2023-03-23T04:14:30;55.07;;;33.83;;
12625;SDS011;6378;42.684;23.372;2023-03-23T04:16:56;56.00;;;34.70;;
12625;SDS011;6378;42.684;23.372;2023-03-23T04:19:25;51.33;;;33.43;;
12625;SDS011;6378;42.684;23.372;2023-03-23T04:21:53;48.83;;;29.13;;
12625;SDS011;6378;42.684;23.372;2023-03-23T04:24:18;45.67;;;27.67;;
12625;SDS011;6378;42.684;23.372;2023-03-23T04:26:46;48.67;;;29.20;;
12625;SDS011;6378;42.684;23.372;2023-03-23T04:29:12;49.20;;;29.50;;
12625;SDS011;6378;42.684;23.372;2023-03-23T04:31:38;51.87;;;31.07;;
12625;SDS011;6378;42.684;23.372;2023-03-23T04:34:04;44.17;;;27.87;;
12625;SDS011;6378;42.684;23.372;2023-03-23T04:36:29;48.97;;;28.77;;
12625;SDS011;6378;42.684;23.372;2023-03-23T04:38:55;50.70;;;29.60;;
12625;SDS011;6378;42.684;23.372;2023-03-23T04:41:21;44.60;;;28.10;;
12625;SDS011;6378;42.684;23.372;2023-03-23T04:43:48;45.20;;;28.87;;
12625;SDS011;6378;42.684;23.372;2023-03-23T04:46:17;52.63;;;32.00;;
12625;SDS011;6378;42.684;23.372;2023-03-23T04:48:44;46.23;;;30.63;;
12625;SDS011;6378;42.684;23.372;2023-03-23T04:51:10;48.33;;;30.37;;
12625;SDS011;6378;42.684;23.372;2023-03-23T04:53:37;46.67;;;29.20;;
12625;SDS011;6378;42.684;23.372;2023-03-23T04:56:03;44.30;;;27.03;;
12625;SDS011;6378;42.684;23.372;2023-03-23T04:58:28;41.80;;;26.97;;
12625;SDS011;6378;42.684;23.372;2023-03-23T05:00:54;44.93;;;28.03;;
12625;SDS011;6378;42.684;23.372;2023-03-23T05:03:20;47.97;;;28.20;;
12625;SDS011;6378;42.684;23.372;2023-03-23T05:05:46;43.00;;;26.53;;
12625;SDS011;6378;42.684;23.372;2023-03-23T05:08:16;39.77;;;24.50;;
12625;SDS011;6378;42.684;23.372;2023-03-23T05:10:49;34.93;;;23.27;;
12625;SDS011;6378;42.684;23.372;2023-03-23T05:13:22;34.83;;;21.47;;
12625;SDS011;6378;42.684;23.372;2023-03-23T05:15:47;35.30;;;21.50;;
12625;SDS011;6378;42.684;23.372;2023-03-23T05:18:13;34.60;;;21.00;;
12625;SDS011;6378;42.684;23.372;2023-03-23T05:20:39;36.13;;;23.87;;
12625;SDS011;6378;42.684;23.372;2023-03-23T05:23:06;40.80;;;24.63;;
12625;SDS011;6378;42.684;23.372;2023-03-23T05:25:33;35.13;;;23.10;;
12625;SDS011;6378;42.684;23.372;2023-03-23T05:28:05;35.70;;;24.27;;
12625;SDS011;6378;42.684;23.372;2023-03-23T05:30:35;47.43;;;26.83;;
12625;SDS011;6378;42.684;23.372;2023-03-23T05:33:02;45.67;;;27.50;;
12625;SDS011;6378;42.684;23.372;2023-03-23T05:35:29;46.10;;;30.20;;
12625;SDS011;6378;42.684;23.372;2023-03-23T05:37:54;47.23;;;30.73;;
12625;SDS011;6378;42.684;23.372;2023-03-23T05:40:20;43.90;;;27.67;;
12625;SDS011;6378;42.684;23.372;2023-03-23T05:42:47;43.90;;;27.50;;
12625;SDS011;6378;42.684;23.372;2023-03-23T05:45:13;47.20;;;27.10;;
12625;SDS011;6378;42.684;23.372;2023-03-23T05:47:39;36.20;;;24.93;;
12625;SDS011;6378;42.684;23.372;2023-03-23T05:50:06;38.67;;;26.77;;
12625;SDS011;6378;42.684;23.372;2023-03-23T05:52:34;39.03;;;25.97;;
12625;SDS011;6378;42.684;23.372;2023-03-23T05:55:01;35.53;;;25.23;;
12625;SDS011;6378;42.684;23.372;2023-03-23T05:57:28;40.50;;;26.43;;
12625;SDS011;6378;42.684;23.372;2023-03-23T05:59:54;40.23;;;26.77;;
12625;SDS011;6378;42.684;23.372;2023-03-23T06:02:21;41.13;;;25.93;;
12625;SDS011;6378;42.684;23.372;2023-03-23T06:04:49;34.37;;;24.10;;
12625;SDS011;6378;42.684;23.372;2023-03-23T06:07:15;38.60;;;24.33;;
12625;SDS011;6378;42.684;23.372;2023-03-23T06:09:40;36.90;;;24.47;;
12625;SDS011;6378;42.684;23.372;2023-03-23T06:12:06;35.03;;;23.43;;
12625;SDS011;6378;42.684;23.372;2023-03-23T06:14:33;34.00;;;23.00;;
12625;SDS011;6378;42.684;23.372;2023-03-23T06:16:58;37.60;;;24.90;;
12625;SDS011;6378;42.684;23.372;2023-03-23T06:19:23;34.60;;;24.50;;
12625;SDS011;6378;42.684;23.372;2023-03-23T06:21:51;34.40;;;24.23;;
12625;SDS011;6378;42.684;23.372;2023-03-23T06:24:17;35.90;;;24.57;;
12625;SDS011;6378;42.684;23.372;2023-03-23T06:26:43;38.83;;;25.47;;
12625;SDS011;6378;42.684;23.372;2023-03-23T06:29:09;37.90;;;26.90;;
12625;SDS011;6378;42.684;23.372;2023-03-23T06:31:38;38.17;;;26.07;;
12625;SDS011;6378;42.684;23.372;2023-03-23T06:34:06;39.33;;;26.47;;
12625;SDS011;6378;42.684;23.372;2023-03-23T06:36:33;36.77;;;25.07;;
12625;SDS011;6378;42.684;23.372;2023-03-23T06:38:59;35.67;;;26.27;;
12625;SDS011;6378;42.684;23.372;2023-03-23T06:41:26;33.00;;;24.60;;
12625;SDS011;6378;42.684;23.372;2023-03-23T06:43:51;37.65;;;23.92;;
12625;SDS011;6378;42.684;23.372;2023-03-23T06:46:17;33.70;;;25.27;;
12625;SDS011;6378;42.684;23.372;2023-03-23T06:48:42;32.83;;;25.05;;
12625;SDS011;6378;42.684;23.372;2023-03-23T06:51:08;36.25;;;26.13;;
12625;SDS011;6378;42.684;23.372;2023-03-23T06:53:33;36.38;;;26.13;;
12625;SDS011;6378;42.684;23.372;2023-03-23T06:55:59;31.50;;;24.65;;
12625;SDS011;6378;42.684;23.372;2023-03-23T06:58:25;30.90;;;25.23;;
12625;SDS011;6378;42.684;23.372;2023-03-23T07:00:56;35.17;;;24.83;;
12625;SDS011;6378;42.684;23.372;2023-03-23T07:03:23;36.13;;;23.88;;
12625;SDS011;6378;42.684;23.372;2023-03-23T07:05:48;28.67;;;21.88;;
12625;SDS011;6378;42.684;23.372;2023-03-23T07:08:15;34.60;;;23.80;;
12625;SDS011;6378;42.684;23.372;2023-03-23T07:10:40;31.17;;;22.40;;
12625;SDS011;6378;42.684;23.372;2023-03-23T07:13:06;30.75;;;22.60;;
12625;SDS011;6378;42.684;23.372;2023-03-23T07:15:31;36.15;;;23.48;;
12625;SDS011;6378;42.684;23.372;2023-03-23T07:17:57;28.98;;;22.27;;
12625;SDS011;6378;42.684;23.372;2023-03-23T07:20:23;31.67;;;24.85;;
12625;SDS011;6378;42.684;23.372;2023-03-23T07:22:48;29.50;;;22.45;;
12625;SDS011;6378;42.684;23.372;2023-03-23T07:25:15;34.25;;;23.00;;
12625;SDS011;6378;42.684;23.372;2023-03-23T07:27:41;28.98;;;21.40;;
12625;SDS011;6378;42.684;23.372;2023-03-23T07:30:06;30.63;;;23.38;;
12625;SDS011;6378;42.684;23.372;2023-03-23T07:32:32;33.58;;;25.17;;
12625;SDS011;6378;42.684;23.372;2023-03-23T07:34:58;37.05;;;24.58;;
12625;SDS011;6378;42.684;23.372;2023-03-23T07:37:23;32.58;;;26.55;;
12625;SDS011;6378;42.684;23.372;2023-03-23T07:39:49;45.40;;;27.45;;
12625;SDS011;6378;42.684;23.372;2023-03-23T07:42:14;32.90;;;26.08;;
12625;SDS011;6378;42.684;23.372;2023-03-23T07:44:40;38.80;;;26.90;;
12625;SDS011;6378;42.684;23.372;2023-03-23T07:47:05;39.30;;;28.15;;
12625;SDS011;6378;42.684;23.372;2023-03-23T07:49:31;41.05;;;28.85;;
12625;SDS011;6378;42.684;23.372;2023-03-23T07:51:57;43.85;;;30.90;;
12625;SDS011;6378;42.684;23.372;2023-03-23T07:54:23;43.58;;;31.58;;
12625;SDS011;6378;42.684;23.372;2023-03-23T07:56:49;46.00;;;32.70;;
12625;SDS011;6378;42.684;23.372;2023-03-23T07:59:15;43.35;;;31.27;;
12625;SDS011;6378;42.684;23.372;2023-03-23T08:01:41;42.38;;;31.40;;
12625;SDS011;6378;42.684;23.372;2023-03-23T08:04:06;43.17;;;29.67;;
12625;SDS011;6378;42.684;23.372;2023-03-23T08:06:32;43.78;;;31.20;;
12625;SDS011;6378;42.684;23.372;2023-03-23T08:08:59;39.65;;;29.30;;
12625;SDS011;6378;42.684;23.372;2023-03-23T08:11:25;42.22;;;27.60;;
12625;SDS011;6378;42.684;23.372;2023-03-23T08:13:51;41.95;;;29.50;;
12625;SDS011;6378;42.684;23.372;2023-03-23T08:16:18;40.17;;;26.58;;
12625;SDS011;6378;42.684;23.372;2023-03-23T08:18:44;38.70;;;27.30;;
12625;SDS011;6378;42.684;23.372;2023-03-23T08:21:11;42.03;;;28.58;;
12625;SDS011;6378;42.684;23.372;2023-03-23T08:23:38;41.15;;;26.20;;
12625;SDS011;6378;42.684;23.372;2023-03-23T08:26:04;31.85;;;24.75;;
12625;SDS011;6378;42.684;23.372;2023-03-23T08:28:31;38.45;;;24.60;;
12625;SDS011;6378;42.684;23.372;2023-03-23T08:30:58;28.27;;;20.15;;
12625;SDS011;6378;42.684;23.372;2023-03-23T08:33:23;29.23;;;20.63;;
12625;SDS011;6378;42.684;23.372;2023-03-23T08:35:56;27.25;;;20.33;;
12625;SDS011;6378;42.684;23.372;2023-03-23T08:38:22;29.55;;;22.30;;
12625;SDS011;6378;42.684;23.372;2023-03-23T08:40:49;24.25;;;18.75;;
12625;SDS011;6378;42.684;23.372;2023-03-23T08:43:15;25.83;;;20.55;;
12625;SDS011;6378;42.684;23.372;2023-03-23T08:45:41;25.70;;;18.10;;
12625;SDS011;6378;42.684;23.372;2023-03-23T08:48:07;22.15;;;17.67;;
12625;SDS011;6378;42.684;23.372;2023-03-23T08:50:33;25.30;;;17.02;;
12625;SDS011;6378;42.684;23.372;2023-03-23T08:52:58;21.15;;;15.15;;
12625;SDS011;6378;42.684;23.372;2023-03-23T08:55:24;21.48;;;14.57;;
12625;SDS011;6378;42.684;23.372;2023-03-23T08:57:51;23.67;;;15.32;;
12625;SDS011;6378;42.684;23.372;2023-03-23T09:00:18;21.75;;;16.48;;
12625;SDS011;6378;42.684;23.372;2023-03-23T09:02:47;17.95;;;13.90;;
12625;SDS011;6378;42.684;23.372;2023-03-23T09:05:17;15.43;;;12.63;;
12625;SDS011;6378;42.684;23.372;2023-03-23T09:07:45;20.20;;;14.27;;
12625;SDS011;6378;42.684;23.372;2023-03-23T09:10:12;23.15;;;16.70;;
12625;SDS011;6378;42.684;23.372;2023-03-23T09:12:39;25.73;;;16.55;;
12625;SDS011;6378;42.684;23.372;2023-03-23T09:15:06;19.38;;;14.20;;
12625;SDS011;6378;42.684;23.372;2023-03-23T09:17:52;16.27;;;13.10;;
12625;SDS011;6378;42.684;23.372;2023-03-23T09:20:20;11.77;;;9.52;;
12625;SDS011;6378;42.684;23.372;2023-03-23T09:22:52;15.43;;;11.52;;
12625;SDS011;6378;42.684;23.372;2023-03-23T09:25:19;16.27;;;11.50;;
12625;SDS011;6378;42.684;23.372;2023-03-23T09:27:48;11.65;;;10.45;;
12625;SDS011;6378;42.684;23.372;2023-03-23T09:30:19;13.25;;;10.55;;
12625;SDS011;6378;42.684;23.372;2023-03-23T09:32:45;13.40;;;10.43;;
12625;SDS011;6378;42.684;23.372;2023-03-23T09:35:13;11.73;;;9.63;;
12625;SDS011;6378;42.684;23.372;2023-03-23T09:37:42;11.13;;;8.85;;
12625;SDS011;6378;42.684;23.372;2023-03-23T09:40:11;13.00;;;10.50;;
12625;SDS011;6378;42.684;23.372;2023-03-23T09:51:04;12.35;;;9.30;;
12625;SDS011;6378;42.684;23.372;2023-03-23T09:53:45;12.07;;;9.38;;
12625;SDS011;6378;42.684;23.372;2023-03-23T09:56:16;11.40;;;9.32;;
12625;SDS011;6378;42.684;23.372;2023-03-23T10:01:20;11.98;;;8.73;;
12625;SDS011;6378;42.684;23.372;2023-03-23T10:03:51;16.00;;;10.60;;
12625;SDS011;6378;42.684;23.372;2023-03-23T10:06:22;11.30;;;9.20;;
12625;SDS011;6378;42.684;23.372;2023-03-23T10:08:52;12.15;;;9.65;;
12625;SDS011;6378;42.684;23.372;2023-03-23T10:16:55;9.60;;;8.60;;
12625;SDS011;6378;42.684;23.372;2023-03-23T10:22:12;11.55;;;9.15;;
12625;SDS011;6378;42.684;23.372;2023-03-23T10:24:50;12.32;;;8.90;;
12625;SDS011;6378;42.684;23.372;2023-03-23T10:27:27;11.40;;;9.07;;
12625;SDS011;6378;42.684;23.372;2023-03-23T10:30:13;11.50;;;8.65;;
12625;SDS011;6378;42.684;23.372;2023-03-23T10:35:09;10.93;;;8.23;;
12625;SDS011;6378;42.684;23.372;2023-03-23T10:37:47;16.60;;;8.15;;
12625;SDS011;6378;42.684;23.372;2023-03-23T10:40:19;10.00;;;8.18;;
12625;SDS011;6378;42.684;23.372;2023-03-23T10:42:49;11.70;;;8.90;;
12625;SDS011;6378;42.684;23.372;2023-03-23T10:47:43;11.73;;;8.88;;
12625;SDS011;6378;42.684;23.372;2023-03-23T10:50:14;9.57;;;7.93;;
12625;SDS011;6378;42.684;23.372;2023-03-23T10:52:42;9.80;;;8.25;;
12625;SDS011;6378;42.684;23.372;2023-03-23T10:57:46;12.35;;;7.95;;
12625;SDS011;6378;42.684;23.372;2023-03-23T11:00:24;11.50;;;7.90;;
12625;SDS011;6378;42.684;23.372;2023-03-23T11:02:57;9.48;;;7.85;;
12625;SDS011;6378;42.684;23.372;2023-03-23T11:05:44;9.32;;;8.13;;
12625;SDS011;6378;42.684;23.372;2023-03-23T11:08:18;9.35;;;7.90;;
12625;SDS011;6378;42.684;23.372;2023-03-23T11:10:53;10.02;;;7.65;;
12625;SDS011;6378;42.684;23.372;2023-03-23T11:13:21;9.88;;;8.13;;
12625;SDS011;6378;42.684;23.372;2023-03-23T11:15:50;11.65;;;8.80;;
12625;SDS011;6378;42.684;23.372;2023-03-23T11:18:19;11.50;;;8.77;;
12625;SDS011;6378;42.684;23.372;2023-03-23T11:21:05;9.55;;;8.10;;
12625;SDS011;6378;42.684;23.372;2023-03-23T11:23:39;10.75;;;9.30;;
12625;SDS011;6378;42.684;23.372;2023-03-23T11:28:43;10.32;;;9.15;;
12625;SDS011;6378;42.684;23.372;2023-03-23T11:31:11;11.73;;;8.43;;
12625;SDS011;6378;42.684;23.372;2023-03-23T11:33:47;9.63;;;8.10;;
12625;SDS011;6378;42.684;23.372;2023-03-23T11:36:28;9.80;;;8.05;;
12625;SDS011;6378;42.684;23.372;2023-03-23T11:39:23;11.23;;;8.02;;
12625;SDS011;6378;42.684;23.372;2023-03-23T11:41:52;9.80;;;8.10;;
12625;SDS011;6378;42.684;23.372;2023-03-23T11:44:20;10.63;;;8.30;;
12625;SDS011;6378;42.684;23.372;2023-03-23T11:46:58;11.82;;;8.45;;
12625;SDS011;6378;42.684;23.372;2023-03-23T11:49:31;8.70;;;7.75;;
12625;SDS011;6378;42.684;23.372;2023-03-23T11:52:17;10.93;;;8.63;;
12625;SDS011;6378;42.684;23.372;2023-03-23T11:54:54;9.27;;;7.97;;
12625;SDS011;6378;42.684;23.372;2023-03-23T11:57:30;10.30;;;8.45;;
12625;SDS011;6378;42.684;23.372;2023-03-23T11:59:55;10.70;;;8.40;;
12625;SDS011;6378;42.684;23.372;2023-03-23T12:05:44;9.18;;;8.18;;
12625;SDS011;6378;42.684;23.372;2023-03-23T12:19:16;9.50;;;7.93;;
12625;SDS011;6378;42.684;23.372;2023-03-23T12:21:55;11.32;;;7.90;;
12625;SDS011;6378;42.684;23.372;2023-03-23T12:43:02;13.63;;;7.70;;
12625;SDS011;6378;42.684;23.372;2023-03-23T12:48:32;10.60;;;7.90;;
12625;SDS011;6378;42.684;23.372;2023-03-23T12:53:30;10.65;;;7.75;;
12625;SDS011;6378;42.684;23.372;2023-03-23T12:58:59;10.77;;;8.55;;
12625;SDS011;6378;42.684;23.372;2023-03-23T13:01:40;8.82;;;7.95;;
12625;SDS011;6378;42.684;23.372;2023-03-23T13:06:41;10.68;;;7.53;;
12625;SDS011;6378;42.684;23.372;2023-03-23T13:11:55;9.85;;;7.40;;
12625;SDS011;6378;42.684;23.372;2023-03-23T13:23:14;9.07;;;7.03;;
12625;SDS011;6378;42.684;23.372;2023-03-23T13:25:59;7.93;;;7.13;;
12625;SDS011;6378;42.684;23.372;2023-03-23T13:28:28;10.13;;;7.43;;
12625;SDS011;6378;42.684;23.372;2023-03-23T13:31:03;8.10;;;6.93;;
12625;SDS011;6378;42.684;23.372;2023-03-23T13:33:37;11.65;;;7.50;;
12625;SDS011;6378;42.684;23.372;2023-03-23T13:36:04;9.35;;;6.88;;
12625;SDS011;6378;42.684;23.372;2023-03-23T13:38:34;7.30;;;6.60;;
12625;SDS011;6378;42.684;23.372;2023-03-23T13:41:06;9.20;;;6.90;;
12625;SDS011;6378;42.684;23.372;2023-03-23T13:43:35;7.70;;;6.90;;
12625;SDS011;6378;42.684;23.372;2023-03-23T13:48:46;9.30;;;7.53;;
12625;SDS011;6378;42.684;23.372;2023-03-23T13:57:00;7.70;;;6.90;;
12625;SDS011;6378;42.684;23.372;2023-03-23T13:59:46;9.70;;;6.95;;
12625;SDS011;6378;42.684;23.372;2023-03-23T14:07:55;9.57;;;7.18;;
12625;SDS011;6378;42.684;23.372;2023-03-23T14:10:35;10.18;;;7.50;;
12625;SDS011;6378;42.684;23.372;2023-03-23T14:16:03;10.15;;;7.45;;
12625;SDS011;6378;42.684;23.372;2023-03-23T14:18:37;9.02;;;7.03;;
12625;SDS011;6378;42.684;23.372;2023-03-23T14:21:04;11.25;;;7.35;;
12625;SDS011;6378;42.684;23.372;2023-03-23T14:23:32;9.70;;;7.97;;
12625;SDS011;6378;42.684;23.372;2023-03-23T14:25:59;9.63;;;6.72;;
12625;SDS011;6378;42.684;23.372;2023-03-23T14:28:38;8.75;;;6.80;;
12625;SDS011;6378;42.684;23.372;2023-03-23T14:31:10;8.57;;;6.82;;
12625;SDS011;6378;42.684;23.372;2023-03-23T14:33:47;7.97;;;6.70;;
12625;SDS011;6378;42.684;23.372;2023-03-23T14:36:23;6.88;;;6.15;;
12625;SDS011;6378;42.684;23.372;2023-03-23T14:38:56;8.20;;;6.88;;
12625;SDS011;6378;42.684;23.372;2023-03-23T14:41:24;8.40;;;7.53;;
12625;SDS011;6378;42.684;23.372;2023-03-23T14:43:54;9.70;;;7.70;;
12625;SDS011;6378;42.684;23.372;2023-03-23T14:46:19;9.68;;;8.07;;
12625;SDS011;6378;42.684;23.372;2023-03-23T14:48:45;9.75;;;7.18;;
12625;SDS011;6378;42.684;23.372;2023-03-23T14:51:17;7.90;;;6.82;;
12625;SDS011;6378;42.684;23.372;2023-03-23T14:53:44;9.45;;;6.50;;
12625;SDS011;6378;42.684;23.372;2023-03-23T14:56:13;7.95;;;6.75;;
12625;SDS011;6378;42.684;23.372;2023-03-23T14:58:47;12.73;;;8.18;;
12625;SDS011;6378;42.684;23.372;2023-03-23T15:01:24;8.32;;;6.90;;
12625;SDS011;6378;42.684;23.372;2023-03-23T15:06:23;9.35;;;7.03;;
12625;SDS011;6378;42.684;23.372;2023-03-23T15:08:53;11.40;;;6.78;;
12625;SDS011;6378;42.684;23.372;2023-03-23T15:11:23;8.32;;;6.78;;
12625;SDS011;6378;42.684;23.372;2023-03-23T15:14:02;7.90;;;7.10;;
12625;SDS011;6378;42.684;23.372;2023-03-23T15:16:34;10.48;;;7.30;;
12625;SDS011;6378;42.684;23.372;2023-03-23T15:19:02;8.73;;;7.15;;
12625;SDS011;6378;42.684;23.372;2023-03-23T15:21:34;7.97;;;6.95;;
12625;SDS011;6378;42.684;23.372;2023-03-23T15:24:39;9.30;;;7.38;;
12625;SDS011;6378;42.684;23.372;2023-03-23T15:29:31;9.60;;;6.82;;
12625;SDS011;6378;42.684;23.372;2023-03-23T15:31:56;9.25;;;6.63;;
12625;SDS011;6378;42.684;23.372;2023-03-23T15:34:30;8.70;;;6.45;;
12625;SDS011;6378;42.684;23.372;2023-03-23T15:37:01;9.38;;;6.60;;
12625;SDS011;6378;42.684;23.372;2023-03-23T15:39:28;8.73;;;6.60;;
12625;SDS011;6378;42.684;23.372;2023-03-23T15:41:56;8.88;;;6.25;;
12625;SDS011;6378;42.684;23.372;2023-03-23T15:44:24;6.97;;;6.25;;
12625;SDS011;6378;42.684;23.372;2023-03-23T15:47:33;10.70;;;6.93;;
12625;SDS011;6378;42.684;23.372;2023-03-23T15:50:02;7.97;;;6.47;;
12625;SDS011;6378;42.684;23.372;2023-03-23T15:52:38;9.77;;;6.70;;
12625;SDS011;6378;42.684;23.372;2023-03-23T15:55:15;7.32;;;6.40;;
12625;SDS011;6378;42.684;23.372;2023-03-23T15:57:51;8.23;;;6.68;;
12625;SDS011;6378;42.684;23.372;2023-03-23T16:00:19;7.95;;;6.43;;
12625;SDS011;6378;42.684;23.372;2023-03-23T16:02:49;9.93;;;6.97;;
12625;SDS011;6378;42.684;23.372;2023-03-23T16:05:19;9.27;;;6.88;;
12625;SDS011;6378;42.684;23.372;2023-03-23T16:07:45;11.15;;;6.80;;
12625;SDS011;6378;42.684;23.372;2023-03-23T16:10:15;9.35;;;6.95;;
12625;SDS011;6378;42.684;23.372;2023-03-23T16:12:42;10.10;;;6.70;;
12625;SDS011;6378;42.684;23.372;2023-03-23T16:15:08;8.77;;;7.25;;
12625;SDS011;6378;42.684;23.372;2023-03-23T16:17:33;7.43;;;6.47;;
12625;SDS011;6378;42.684;23.372;2023-03-23T16:19:59;7.82;;;6.53;;
12625;SDS011;6378;42.684;23.372;2023-03-23T16:22:24;10.60;;;7.43;;
12625;SDS011;6378;42.684;23.372;2023-03-23T16:24:50;10.10;;;7.45;;
12625;SDS011;6378;42.684;23.372;2023-03-23T16:27:15;14.00;;;7.28;;
12625;SDS011;6378;42.684;23.372;2023-03-23T16:29:41;8.48;;;6.60;;
12625;SDS011;6378;42.684;23.372;2023-03-23T16:32:06;10.02;;;7.13;;
12625;SDS011;6378;42.684;23.372;2023-03-23T16:34:32;10.55;;;7.15;;
12625;SDS011;6378;42.684;23.372;2023-03-23T16:36:59;9.43;;;7.40;;
12625;SDS011;6378;42.684;23.372;2023-03-23T16:39:25;11.77;;;7.68;;
12625;SDS011;6378;42.684;23.372;2023-03-23T16:41:51;12.00;;;7.53;;
12625;SDS011;6378;42.684;23.372;2023-03-23T16:44:17;10.70;;;7.65;;
12625;SDS011;6378;42.684;23.372;2023-03-23T16:46:42;9.93;;;7.88;;
12625;SDS011;6378;42.684;23.372;2023-03-23T16:49:08;13.05;;;8.48;;
12625;SDS011;6378;42.684;23.372;2023-03-23T16:51:33;11.38;;;8.20;;